sensor_id;sensor_type;location;lat;lon;timestamp;pressure;altitude;pressure_sealevel;temperature;humidity
61880;BME280;47817;52.798;27.544;2023-05-21T00:01:25;1032.9;;;15.5;41.9
61880;BME280;47817;52.798;27.544;2023-05-21T00:07:07;1033;;;15.4;42.5
61880;BME280;47817;52.798;27.544;2023-05-21T00:12:05;1033;;;15.4;42.4
61880;BME280;47817;52.798;27.544;2023-05-21T00:17:15;1033;;;15.3;42.6
61880;BME280;47817;52.798;27.544;2023-05-21T00:21:37;1033.1;;;15.3;42.7
61880;BME280;47817;52.798;27.544;2023-05-21T00:26:25;1033.1;;;15.3;42.8
61880;BME280;47817;52.798;27.544;2023-05-21T00:31:59;1033.1;;;15.2;43
61880;BME280;47817;52.798;27.544;2023-05-21T00:36:25;1033;;;15.2;43.5
61880;BME280;47817;52.798;27.544;2023-05-21T00:42:15;1033;;;15.1;44
61880;BME280;47817;52.798;27.544;2023-05-21T00:47:05;1033;;;15;44.7
61880;BME280;47817;52.798;27.544;2023-05-21T00:51:25;1032.9;;;14.9;45.1
61880;BME280;47817;52.798;27.544;2023-05-21T00:56:59;1032.9;;;14.8;45.7
61880;BME280;47817;52.798;27.544;2023-05-21T01:01:47;1033;;;14.8;46
61880;BME280;47817;52.798;27.544;2023-05-21T01:06:25;1033;;;14.7;46
61880;BME280;47817;52.798;27.544;2023-05-21T01:11:26;1033;;;14.7;46.1
61880;BME280;47817;52.798;27.544;2023-05-21T01:17:07;1033;;;14.7;46.9
61880;BME280;47817;52.798;27.544;2023-05-21T01:22:02;1033.1;;;14.6;47.1
61880;BME280;47817;52.798;27.544;2023-05-21T01:26:25;1033.1;;;14.6;47.5
61880;BME280;47817;52.798;27.544;2023-05-21T01:32:16;1033.1;;;14.6;47.3
61880;BME280;47817;52.798;27.544;2023-05-21T01:36:59;1033.1;;;14.6;47.2
61880;BME280;47817;52.798;27.544;2023-05-21T01:41:36;1033.1;;;14.6;47.2
61880;BME280;47817;52.798;27.544;2023-05-21T01:46:37;1033.1;;;14.6;47.2
61880;BME280;47817;52.798;27.544;2023-05-21T01:52:07;1033.1;;;14.5;47.4
61880;BME280;47817;52.798;27.544;2023-05-21T01:57:15;1033.1;;;14.5;47.6
61880;BME280;47817;52.798;27.544;2023-05-21T02:01:39;1033.1;;;14.4;47.7
61880;BME280;47817;52.798;27.544;2023-05-21T02:06:59;1033;;;14.3;48.2
61880;BME280;47817;52.798;27.544;2023-05-21T02:11:43;1033;;;14.2;48.7
61880;BME280;47817;52.798;27.544;2023-05-21T02:16:59;1033.1;;;14.1;49
61880;BME280;47817;52.798;27.544;2023-05-21T02:21:37;1033.1;;;14;49.1
61880;BME280;47817;52.798;27.544;2023-05-21T02:26:51;1033.1;;;14;49.3
61880;BME280;47817;52.798;27.544;2023-05-21T02:31:25;1033;;;13.9;49.2
61880;BME280;47817;52.798;27.544;2023-05-21T02:37:15;1033.1;;;14;49.3
61880;BME280;47817;52.798;27.544;2023-05-21T02:41:55;1033.1;;;14;49.6
61880;BME280;47817;52.798;27.544;2023-05-21T02:47:13;1033;;;14;50
61880;BME280;47817;52.798;27.544;2023-05-21T02:51:37;1033;;;14;50.2
61880;BME280;47817;52.798;27.544;2023-05-21T02:56:49;1033;;;14.1;50.3
61880;BME280;47817;52.798;27.544;2023-05-21T03:01:59;1032.9;;;14.1;50.3
61880;BME280;47817;52.798;27.544;2023-05-21T03:07:05;1032.9;;;14.2;50.1
61880;BME280;47817;52.798;27.544;2023-05-21T03:12:15;1032.9;;;14.2;50.2
61880;BME280;47817;52.798;27.544;2023-05-21T03:17:05;1032.8;;;14.3;50.1
61880;BME280;47817;52.798;27.544;2023-05-21T03:21:25;1032.8;;;14.4;50.3
61880;BME280;47817;52.798;27.544;2023-05-21T03:26:27;1032.8;;;14.4;50.6
61880;BME280;47817;52.798;27.544;2023-05-21T03:31:37;1032.8;;;14.5;50.7
61880;BME280;47817;52.798;27.544;2023-05-21T03:36:43;1032.8;;;14.7;50.8
61880;BME280;47817;52.798;27.544;2023-05-21T03:41:25;1032.8;;;14.8;51
61880;BME280;47817;52.798;27.544;2023-05-21T03:46:53;1032.8;;;15;50.3
61880;BME280;47817;52.798;27.544;2023-05-21T03:51:57;1032.8;;;15.2;49.9
61880;BME280;47817;52.798;27.544;2023-05-21T03:56:25;1032.8;;;15.4;49.5
61880;BME280;47817;52.798;27.544;2023-05-21T04:02:13;1032.9;;;15.6;49
61880;BME280;47817;52.798;27.544;2023-05-21T04:06:57;1032.9;;;15.7;48.6
61880;BME280;47817;52.798;27.544;2023-05-21T04:11:37;1032.8;;;15.9;48.2
61880;BME280;47817;52.798;27.544;2023-05-21T04:16:51;1032.8;;;16;48.1
61880;BME280;47817;52.798;27.544;2023-05-21T04:22:05;1032.8;;;16.3;47.7
61880;BME280;47817;52.798;27.544;2023-05-21T04:27:15;1032.7;;;16.4;47.2
61880;BME280;47817;52.798;27.544;2023-05-21T04:31:55;1032.7;;;16.7;46.9
61880;BME280;47817;52.798;27.544;2023-05-21T04:37:01;1032.7;;;16.9;46.7
61880;BME280;47817;52.798;27.544;2023-05-21T04:41:45;1032.7;;;17;46.5
61880;BME280;47817;52.798;27.544;2023-05-21T04:46:37;1032.8;;;17.1;46.4
61880;BME280;47817;52.798;27.544;2023-05-21T04:51:39;1032.8;;;17.2;46.7
61880;BME280;47817;52.798;27.544;2023-05-21T04:56:51;1032.8;;;17.4;47
61880;BME280;47817;52.798;27.544;2023-05-21T05:01:37;1032.8;;;17.6;47.2
61880;BME280;47817;52.798;27.544;2023-05-21T05:07:07;1032.8;;;17.7;47.4
61880;BME280;47817;52.798;27.544;2023-05-21T05:11:27;1032.8;;;18;47.1
61880;BME280;47817;52.798;27.544;2023-05-21T05:17:15;1032.8;;;18.3;46.4
61880;BME280;47817;52.798;27.544;2023-05-21T05:21:51;1032.8;;;18.5;45.7
61880;BME280;47817;52.798;27.544;2023-05-21T05:26:51;1032.8;;;18.7;45.1
61880;BME280;47817;52.798;27.544;2023-05-21T05:31:59;1032.8;;;18.8;44.5
61880;BME280;47817;52.798;27.544;2023-05-21T05:36:25;1032.8;;;19.1;44.3
61880;BME280;47817;52.798;27.544;2023-05-21T05:42:15;1032.7;;;19.3;43.7
61880;BME280;47817;52.798;27.544;2023-05-21T05:47:13;1032.7;;;19.4;43.9
61880;BME280;47817;52.798;27.544;2023-05-21T05:51:25;1032.7;;;19.4;43.9
61880;BME280;47817;52.798;27.544;2023-05-21T05:56:59;1032.7;;;19.5;43.7
61880;BME280;47817;52.798;27.544;2023-05-21T06:01:49;1032.8;;;19.6;43.3
61880;BME280;47817;52.798;27.544;2023-05-21T06:06:25;1032.7;;;19.8;42.4
61880;BME280;47817;52.798;27.544;2023-05-21T06:12:15;1032.7;;;20;42.1
61880;BME280;47817;52.798;27.544;2023-05-21T06:17:07;1032.6;;;20;42.2
61880;BME280;47817;52.798;27.544;2023-05-21T06:22:15;1032.6;;;20.1;41.9
61880;BME280;47817;52.798;27.544;2023-05-21T06:26:25;1032.6;;;20;40.8
61880;BME280;47817;52.798;27.544;2023-05-21T06:32:15;1032.6;;;20.1;40.4
61880;BME280;47817;52.798;27.544;2023-05-21T06:36:25;1032.5;;;20.3;40.1
61880;BME280;47817;52.798;27.544;2023-05-21T06:41:25;1032.5;;;20.3;40
61880;BME280;47817;52.798;27.544;2023-05-21T06:46:51;1032.4;;;20.3;39.5
61880;BME280;47817;52.798;27.544;2023-05-21T06:52:07;1032.3;;;20.4;38.5
61880;BME280;47817;52.798;27.544;2023-05-21T06:57:15;1032.3;;;20.6;38.3
61880;BME280;47817;52.798;27.544;2023-05-21T07:02:13;1032.2;;;21;38.2
61880;BME280;47817;52.798;27.544;2023-05-21T07:07:13;1032.2;;;21.1;37.9
61880;BME280;47817;52.798;27.544;2023-05-21T07:12:13;1032.2;;;21.4;37.6
61880;BME280;47817;52.798;27.544;2023-05-21T07:16:25;1032.1;;;21.4;37.3
61880;BME280;47817;52.798;27.544;2023-05-21T07:21:25;1032.1;;;21.7;36.7
61880;BME280;47817;52.798;27.544;2023-05-21T07:27:15;1032.1;;;21.9;36.4
61880;BME280;47817;52.798;27.544;2023-05-21T07:31:25;1032.1;;;22;35.6
61880;BME280;47817;52.798;27.544;2023-05-21T07:37:07;1032;;;22.2;35.7
61880;BME280;47817;52.798;27.544;2023-05-21T07:41:53;1032;;;22.3;34.6
61880;BME280;47817;52.798;27.544;2023-05-21T07:47:13;1031.9;;;22.5;34.7
61880;BME280;47817;52.798;27.544;2023-05-21T07:51:51;1031.8;;;22.6;34.8
61880;BME280;47817;52.798;27.544;2023-05-21T07:56:37;1031.9;;;22.9;33.9
61880;BME280;47817;52.798;27.544;2023-05-21T08:01:59;1031.8;;;22.6;34.3
61880;BME280;47817;52.798;27.544;2023-05-21T08:06:37;1031.8;;;22.7;34.1
61880;BME280;47817;52.798;27.544;2023-05-21T08:12:13;1031.7;;;23;34.1
61880;BME280;47817;52.798;27.544;2023-05-21T08:17:15;1031.7;;;23.5;33.7
61880;BME280;47817;52.798;27.544;2023-05-21T08:21:37;1031.6;;;23.6;33.5
61880;BME280;47817;52.798;27.544;2023-05-21T08:26:59;1031.6;;;23.5;33.1
61880;BME280;47817;52.798;27.544;2023-05-21T08:31:57;1031.6;;;23.2;32.9
61880;BME280;47817;52.798;27.544;2023-05-21T08:36:25;1031.6;;;23.4;32.7
61880;BME280;47817;52.798;27.544;2023-05-21T08:42:17;1031.6;;;23.6;32.3
61880;BME280;47817;52.798;27.544;2023-05-21T08:47:05;1031.5;;;23.8;32
61880;BME280;47817;52.798;27.544;2023-05-21T08:52:15;1031.5;;;24.3;32
61880;BME280;47817;52.798;27.544;2023-05-21T08:56:37;1031.4;;;24.6;31.5
61880;BME280;47817;52.798;27.544;2023-05-21T09:02:15;1031.3;;;24.3;30.7
61880;BME280;47817;52.798;27.544;2023-05-21T09:06:43;1031.3;;;24.6;29.6
61880;BME280;47817;52.798;27.544;2023-05-21T09:11:37;1031.3;;;24.6;29.6
61880;BME280;47817;52.798;27.544;2023-05-21T09:16:51;1031.3;;;24;30.3
61880;BME280;47817;52.798;27.544;2023-05-21T09:21:53;1031.3;;;23.5;30.7
61880;BME280;47817;52.798;27.544;2023-05-21T09:26:59;1031.3;;;23.1;30.9
61880;BME280;47817;52.798;27.544;2023-05-21T09:32:17;1031.2;;;23.2;30.9
61880;BME280;47817;52.798;27.544;2023-05-21T09:36:51;1031.1;;;23.8;30.6
61880;BME280;47817;52.798;27.544;2023-05-21T09:41:45;1031.1;;;24.3;30
61880;BME280;47817;52.798;27.544;2023-05-21T09:46:25;1031.1;;;24.5;29.2
61880;BME280;47817;52.798;27.544;2023-05-21T09:52:07;1031.1;;;24.1;29.1
61880;BME280;47817;52.798;27.544;2023-05-21T09:57:01;1031;;;23.7;29.8
61880;BME280;47817;52.798;27.544;2023-05-21T10:01:37;1031;;;24.4;29.4
61880;BME280;47817;52.798;27.544;2023-05-21T10:07:13;1031;;;24.6;28.7
61880;BME280;47817;52.798;27.544;2023-05-21T10:11:57;1030.9;;;24.7;28.6
61880;BME280;47817;52.798;27.544;2023-05-21T10:16:25;1030.8;;;25.2;28
61880;BME280;47817;52.798;27.544;2023-05-21T10:21:51;1030.8;;;25.4;27.8
61880;BME280;47817;52.798;27.544;2023-05-21T10:27:11;1030.8;;;25.9;27.6
61880;BME280;47817;52.798;27.544;2023-05-21T10:32:15;1030.7;;;26.4;26.6
61880;BME280;47817;52.798;27.544;2023-05-21T10:36:25;1030.6;;;26.6;27
61880;BME280;47817;52.798;27.544;2023-05-21T10:42:00;1030.6;;;26.6;26.9
61880;BME280;47817;52.798;27.544;2023-05-21T10:51:25;1030.6;;;25;27.1
61880;BME280;47817;52.798;27.544;2023-05-21T10:56:27;1030.5;;;24.8;27.5
61880;BME280;47817;52.798;27.544;2023-05-21T11:01:37;1030.4;;;25.6;26.6
61880;BME280;47817;52.798;27.544;2023-05-21T11:06:25;1030.4;;;25.6;26.7
61880;BME280;47817;52.798;27.544;2023-05-21T11:12:15;1030.4;;;25.3;26.9
61880;BME280;47817;52.798;27.544;2023-05-21T11:16:59;1030.3;;;25.1;27.3
61880;BME280;47817;52.798;27.544;2023-05-21T11:22:21;1030.3;;;24.8;27.7
61880;BME280;47817;52.798;27.544;2023-05-21T11:26:25;1030.3;;;24.7;28.1
61880;BME280;47817;52.798;27.544;2023-05-21T11:31:25;1030.3;;;24.9;27.5
61880;BME280;47817;52.798;27.544;2023-05-21T11:36:51;1030.2;;;25.5;26.4
61880;BME280;47817;52.798;27.544;2023-05-21T11:41:50;1030.1;;;26.1;25.7
61880;BME280;47817;52.798;27.544;2023-05-21T11:47:11;1030.1;;;26;26.4
61880;BME280;47817;52.798;27.544;2023-05-21T11:52:06;1030;;;26;26.6
61880;BME280;47817;52.798;27.544;2023-05-21T11:56:37;1030;;;26.2;26.6
61880;BME280;47817;52.798;27.544;2023-05-21T12:01:45;1030;;;26.5;26
61880;BME280;47817;52.798;27.544;2023-05-21T12:07:01;1029.9;;;27;25.7
61880;BME280;47817;52.798;27.544;2023-05-21T12:11:43;1029.9;;;27.7;25.2
61880;BME280;47817;52.798;27.544;2023-05-21T12:17:14;1029.8;;;28.2;24
61880;BME280;47817;52.798;27.544;2023-05-21T12:22:03;1029.8;;;27.7;24
61880;BME280;47817;52.798;27.544;2023-05-21T12:26:53;1029.8;;;27.3;24.5
61880;BME280;47817;52.798;27.544;2023-05-21T12:31:25;1029.8;;;27.5;24.6
61880;BME280;47817;52.798;27.544;2023-05-21T12:37:15;1029.8;;;27.7;23.6
61880;BME280;47817;52.798;27.544;2023-05-21T12:42:00;1029.7;;;27.6;23.7
61880;BME280;47817;52.798;27.544;2023-05-21T12:46:25;1029.6;;;29.9;21.9
61880;BME280;47817;52.798;27.544;2023-05-21T12:51:51;1029.6;;;32.1;20.3
61880;BME280;47817;52.798;27.544;2023-05-21T12:57:15;1029.5;;;34.5;18.8
61880;BME280;47817;52.798;27.544;2023-05-21T13:02:17;1029.5;;;33.8;19.3
61880;BME280;47817;52.798;27.544;2023-05-21T13:06:40;1029.5;;;33.1;19.9
61880;BME280;47817;52.798;27.544;2023-05-21T13:11:59;1029.4;;;35.2;18.6
61880;BME280;47817;52.798;27.544;2023-05-21T13:17:15;1029.4;;;34.6;18.1
61880;BME280;47817;52.798;27.544;2023-05-21T13:21:25;1029.4;;;32.1;19.3
61880;BME280;47817;52.798;27.544;2023-05-21T13:26:51;1029.4;;;31.1;20.3
61880;BME280;47817;52.798;27.544;2023-05-21T13:31:49;1029.4;;;30.5;20.7
61880;BME280;47817;52.798;27.544;2023-05-21T13:36:49;1029.4;;;29.9;21
61880;BME280;47817;52.798;27.544;2023-05-21T13:42:15;1029.3;;;30.7;20.7
61880;BME280;47817;52.798;27.544;2023-05-21T13:46:59;1029.3;;;32;19.9
61880;BME280;47817;52.798;27.544;2023-05-21T13:52:13;1029.3;;;31.4;20.4
61880;BME280;47817;52.798;27.544;2023-05-21T13:56:25;1029.3;;;32.3;19.8
61880;BME280;47817;52.798;27.544;2023-05-21T14:01:37;1029.2;;;33.7;18.8
61880;BME280;47817;52.798;27.544;2023-05-21T14:06:59;1029.2;;;32;19.4
61880;BME280;47817;52.798;27.544;2023-05-21T14:11:35;1029.1;;;33.9;17.9
61880;BME280;47817;52.798;27.544;2023-05-21T14:17:15;1028.9;;;38.3;15.2
61880;BME280;47817;52.798;27.544;2023-05-21T14:21:57;1028.9;;;40.8;14.3
61880;BME280;47817;52.798;27.544;2023-05-21T14:26:25;1028.9;;;41.5;13.7
61880;BME280;47817;52.798;27.544;2023-05-21T14:31:53;1028.8;;;42.4;13.2
61880;BME280;47817;52.798;27.544;2023-05-21T14:36:25;1028.8;;;43.3;12
61880;BME280;47817;52.798;27.544;2023-05-21T14:41:25;1028.8;;;43.7;10.9
61880;BME280;47817;52.798;27.544;2023-05-21T14:47:15;1028.7;;;43.2;11.5
61880;BME280;47817;52.798;27.544;2023-05-21T14:52:07;1028.7;;;43.4;11.3
61880;BME280;47817;52.798;27.544;2023-05-21T14:57:15;1028.6;;;44.7;10.6
61880;BME280;47817;52.798;27.544;2023-05-21T15:01:37;1028.6;;;45.6;10.1
61880;BME280;47817;52.798;27.544;2023-05-21T15:07:17;1028.5;;;44.6;10.2
61880;BME280;47817;52.798;27.544;2023-05-21T15:11:37;1028.5;;;43.7;10.3
61880;BME280;47817;52.798;27.544;2023-05-21T15:16:39;1028.5;;;43.1;10.3
61880;BME280;47817;52.798;27.544;2023-05-21T15:21:51;1028.4;;;43;10.5
61880;BME280;47817;52.798;27.544;2023-05-21T15:27:05;1028.4;;;44;10.3
61880;BME280;47817;52.798;27.544;2023-05-21T15:32:15;1028.4;;;44.4;9.6
61880;BME280;47817;52.798;27.544;2023-05-21T15:37:15;1028.4;;;44.5;9.9
61880;BME280;47817;52.798;27.544;2023-05-21T15:42:13;1028.3;;;44.7;9.9
61880;BME280;47817;52.798;27.544;2023-05-21T15:46:47;1028.3;;;45.3;9.7
61880;BME280;47817;52.798;27.544;2023-05-21T15:51:53;1028.3;;;45.3;9.6
61880;BME280;47817;52.798;27.544;2023-05-21T15:56:51;1028.3;;;45.1;9.5
61880;BME280;47817;52.798;27.544;2023-05-21T16:02:15;1028.3;;;43.6;10.2
61880;BME280;47817;52.798;27.544;2023-05-21T16:06:55;1028.3;;;40;11.5
61880;BME280;47817;52.798;27.544;2023-05-21T16:12:07;1028.4;;;36;13.3
61880;BME280;47817;52.798;27.544;2023-05-21T16:16:45;1028.3;;;36.7;13.1
61880;BME280;47817;52.798;27.544;2023-05-21T16:22:11;1028.3;;;39.9;11.8
61880;BME280;47817;52.798;27.544;2023-05-21T16:26:37;1028.2;;;42.6;10.6
61880;BME280;47817;52.798;27.544;2023-05-21T16:31:37;1028.2;;;43.7;10.3
61880;BME280;47817;52.798;27.544;2023-05-21T16:36:57;1028.2;;;43.9;10.1
61880;BME280;47817;52.798;27.544;2023-05-21T16:41:49;1028.2;;;41.2;11.3
61880;BME280;47817;52.798;27.544;2023-05-21T16:47:11;1028.2;;;37;13.4
61880;BME280;47817;52.798;27.544;2023-05-21T16:52:13;1028.2;;;34.7;14.7
61880;BME280;47817;52.798;27.544;2023-05-21T16:56:35;1028.1;;;34.3;15
61880;BME280;47817;52.798;27.544;2023-05-21T17:01:59;1028.1;;;35.7;14.2
61880;BME280;47817;52.798;27.544;2023-05-21T17:06:25;1028.1;;;36.1;14
61880;BME280;47817;52.798;27.544;2023-05-21T17:11:25;1028;;;36.1;14
61880;BME280;47817;52.798;27.544;2023-05-21T17:17:13;1028;;;35.8;14.2
61880;BME280;47817;52.798;27.544;2023-05-21T17:22:03;1028;;;35.5;14.3
61880;BME280;47817;52.798;27.544;2023-05-21T17:27:13;1028;;;35.1;14.6
61880;BME280;47817;52.798;27.544;2023-05-21T17:31:25;1027.9;;;34.5;14.8
61880;BME280;47817;52.798;27.544;2023-05-21T17:37:13;1027.9;;;33.7;15.2
61880;BME280;47817;52.798;27.544;2023-05-21T17:41:25;1027.9;;;32.4;16.2
61880;BME280;47817;52.798;27.544;2023-05-21T17:46:25;1027.9;;;30.9;17.4
61880;BME280;47817;52.798;27.544;2023-05-21T17:51:25;1028;;;29.4;18.5
61880;BME280;47817;52.798;27.544;2023-05-21T17:56:53;1028;;;27.1;20.1
61880;BME280;47817;52.798;27.544;2023-05-21T18:02:11;1028;;;25.8;21.1
61880;BME280;47817;52.798;27.544;2023-05-21T18:07:13;1028;;;24.6;22.3
61880;BME280;47817;52.798;27.544;2023-05-21T18:12:13;1028.1;;;23.7;23
61880;BME280;47817;52.798;27.544;2023-05-21T18:16:43;1028;;;23.1;23.6
61880;BME280;47817;52.798;27.544;2023-05-21T18:21:37;1028;;;22.7;24.4
61880;BME280;47817;52.798;27.544;2023-05-21T18:26:49;1028.1;;;22.4;26
61880;BME280;47817;52.798;27.544;2023-05-21T18:32:13;1028.1;;;22.1;27.3
61880;BME280;47817;52.798;27.544;2023-05-21T18:36:37;1028.1;;;21.7;28.5
61880;BME280;47817;52.798;27.544;2023-05-21T18:42:13;1028.1;;;21.4;29.2
61880;BME280;47817;52.798;27.544;2023-05-21T18:46:45;1028.2;;;21.2;29.8
61880;BME280;47817;52.798;27.544;2023-05-21T18:51:37;1028.1;;;21;30.2
61880;BME280;47817;52.798;27.544;2023-05-21T18:56:45;1028.2;;;20.8;30.8
61880;BME280;47817;52.798;27.544;2023-05-21T19:02:17;1028.2;;;20.6;31.8
61880;BME280;47817;52.798;27.544;2023-05-21T19:07:01;1028.2;;;20.5;31.7
61880;BME280;47817;52.798;27.544;2023-05-21T19:11:37;1028.2;;;20.4;31.7
61880;BME280;47817;52.798;27.544;2023-05-21T19:17:01;1028.2;;;20.2;32
61880;BME280;47817;52.798;27.544;2023-05-21T19:21:25;1028.3;;;20.1;32.2
61880;BME280;47817;52.798;27.544;2023-05-21T19:26:37;1028.3;;;20;32.3
61880;BME280;47817;52.798;27.544;2023-05-21T19:31:51;1028.3;;;19.9;32.4
61880;BME280;47817;52.798;27.544;2023-05-21T19:36:37;1028.3;;;19.9;32.6
61880;BME280;47817;52.798;27.544;2023-05-21T19:41:49;1028.2;;;19.9;33.3
61880;BME280;47817;52.798;27.544;2023-05-21T19:47:13;1028.2;;;19.8;33.3
61880;BME280;47817;52.798;27.544;2023-05-21T19:51:57;1028.2;;;19.6;34.3
61880;BME280;47817;52.798;27.544;2023-05-21T19:57:13;1028.1;;;19.5;34.6
61880;BME280;47817;52.798;27.544;2023-05-21T20:01:25;1028.1;;;19.4;34.2
61880;BME280;47817;52.798;27.544;2023-05-21T20:06:49;1028.1;;;19.3;34.6
61880;BME280;47817;52.798;27.544;2023-05-21T20:11:59;1028.2;;;19.2;35.5
61880;BME280;47817;52.798;27.544;2023-05-21T20:16:25;1028.2;;;19;36.5
61880;BME280;47817;52.798;27.544;2023-05-21T20:22:15;1028.2;;;18.9;37.3
61880;BME280;47817;52.798;27.544;2023-05-21T20:27:05;1028.2;;;18.8;37.9
61880;BME280;47817;52.798;27.544;2023-05-21T20:31:37;1028.2;;;18.6;38.4
61880;BME280;47817;52.798;27.544;2023-05-21T20:36:59;1028.2;;;18.5;38.5
61880;BME280;47817;52.798;27.544;2023-05-21T20:41:37;1028.2;;;18.4;38.3
61880;BME280;47817;52.798;27.544;2023-05-21T20:46:37;1028.2;;;18.4;38.2
61880;BME280;47817;52.798;27.544;2023-05-21T20:51:25;1028.2;;;18.3;38.3
61880;BME280;47817;52.798;27.544;2023-05-21T20:57:05;1028.3;;;18.3;38.3
61880;BME280;47817;52.798;27.544;2023-05-21T21:01:45;1028.3;;;18.2;39.3
61880;BME280;47817;52.798;27.544;2023-05-21T21:06:57;1028.3;;;18;40.3
61880;BME280;47817;52.798;27.544;2023-05-21T21:12:15;1028.2;;;18;40.1
61880;BME280;47817;52.798;27.544;2023-05-21T21:17:13;1028.2;;;18;39.8
61880;BME280;47817;52.798;27.544;2023-05-21T21:21:51;1028.3;;;18;39.7
61880;BME280;47817;52.798;27.544;2023-05-21T21:26:51;1028.3;;;17.8;40.4
61880;BME280;47817;52.798;27.544;2023-05-21T21:32:13;1028.3;;;17.7;39.9
61880;BME280;47817;52.798;27.544;2023-05-21T21:37:15;1028.4;;;17.7;40
61880;BME280;47817;52.798;27.544;2023-05-21T21:41:25;1028.3;;;17.6;40.8
61880;BME280;47817;52.798;27.544;2023-05-21T21:46:59;1028.3;;;17.4;41.6
61880;BME280;47817;52.798;27.544;2023-05-21T21:51:43;1028.3;;;17.3;42.4
61880;BME280;47817;52.798;27.544;2023-05-21T21:56:25;1028.3;;;17.3;42.9
61880;BME280;47817;52.798;27.544;2023-05-21T22:02:05;1028.3;;;17.2;42.8
61880;BME280;47817;52.798;27.544;2023-05-21T22:06:37;1028.2;;;17.2;42.1
61880;BME280;47817;52.798;27.544;2023-05-21T22:11:25;1028.2;;;17.2;42.2
61880;BME280;47817;52.798;27.544;2023-05-21T22:17:17;1028.2;;;17.1;42.4
61880;BME280;47817;52.798;27.544;2023-05-21T22:21:59;1028.2;;;17.1;43.1
61880;BME280;47817;52.798;27.544;2023-05-21T22:27:15;1028.2;;;17;43.9
61880;BME280;47817;52.798;27.544;2023-05-21T22:31:25;1028.3;;;16.9;44.4
61880;BME280;47817;52.798;27.544;2023-05-21T22:36:49;1028.3;;;16.8;44.9
61880;BME280;47817;52.798;27.544;2023-05-21T22:41:59;1028.3;;;16.8;45
61880;BME280;47817;52.798;27.544;2023-05-21T22:46:25;1028.3;;;16.7;45.1
61880;BME280;47817;52.798;27.544;2023-05-21T22:52:13;1028.3;;;16.6;45
61880;BME280;47817;52.798;27.544;2023-05-21T22:57:07;1028.2;;;16.7;44.6
61880;BME280;47817;52.798;27.544;2023-05-21T23:01:33;1028.3;;;16.6;44.6
61880;BME280;47817;52.798;27.544;2023-05-21T23:07:01;1028.3;;;16.6;44.9
61880;BME280;47817;52.798;27.544;2023-05-21T23:11:59;1028.3;;;16.5;45.1
61880;BME280;47817;52.798;27.544;2023-05-21T23:16:45;1028.3;;;16.4;45.2
61880;BME280;47817;52.798;27.544;2023-05-21T23:22:17;1028.3;;;16.3;45.4
61880;BME280;47817;52.798;27.544;2023-05-21T23:27:07;1028.2;;;16.2;45.4
61880;BME280;47817;52.798;27.544;2023-05-21T23:32:15;1028.2;;;16.2;45.6
61880;BME280;47817;52.798;27.544;2023-05-21T23:36:25;1028.2;;;16.1;46.3
61880;BME280;47817;52.798;27.544;2023-05-21T23:42:15;1028.2;;;16;47
61880;BME280;47817;52.798;27.544;2023-05-21T23:46:31;1028.2;;;15.9;47.7
61880;BME280;47817;52.798;27.544;2023-05-21T23:51:51;1028.2;;;15.8;48
61880;BME280;47817;52.798;27.544;2023-05-21T23:56:39;1028.2;;;15.7;48.3
